Time;durP1;ratioP1;P1;durP2;ratioP2;P2;SDS_P1;SDS_P2;PMS_P1;PMS_P2;Temp;Humidity;BMP_temperature;BMP_pressure;BME280_temperature;BME280_humidity;BME280_pressure;Samples;Min_cycle;Max_cycle;Signal;HPM_P1;HPM_P2
2021/01/21 00:01:40;;;;;;;4.80;1.17;;;11.10;99.90;;;;;;4148788;28;20046;-84
2021/01/21 00:03:41;;;;;;;4.50;1.55;;;11.10;99.90;;;;;;4146453;28;20029;-84
2021/01/21 00:05:42;;;;;;;2.72;1.27;;;11.10;99.90;;;;;;4168595;28;20033;-84
2021/01/21 00:07:43;;;;;;;2.97;1.35;;;11.10;99.90;;;;;;4148071;28;20157;-84
2021/01/21 00:09:43;;;;;;;5.35;1.83;;;11.00;99.90;;;;;;4163187;28;20054;-84
2021/01/21 00:11:44;;;;;;;5.00;1.83;;;11.00;99.90;;;;;;4158156;28;20033;-84
2021/01/21 00:13:45;;;;;;;5.47;2.10;;;10.90;99.90;;;;;;4160745;28;20038;-84
2021/01/21 00:15:46;;;;;;;4.68;1.75;;;10.90;99.90;;;;;;4165087;28;20371;-84
2021/01/21 00:17:46;;;;;;;8.60;2.30;;;10.80;99.90;;;;;;4166945;28;20044;-84
2021/01/21 00:19:47;;;;;;;6.93;1.83;;;10.80;99.90;;;;;;4140998;28;20037;-84
2021/01/21 00:21:57;;;;;;;7.05;1.63;;;10.80;99.90;;;;;;4148710;28;20600;-84
2021/01/21 00:23:58;;;;;;;6.60;1.90;;;10.70;99.90;;;;;;4163689;28;20034;-84
2021/01/21 00:26:07;;;;;;;3.40;1.40;;;10.70;99.90;;;;;;4161856;28;20040;-84
2021/01/21 00:28:08;;;;;;;7.32;2.00;;;10.70;99.90;;;;;;4158574;28;20245;-84
2021/01/21 00:30:11;;;;;;;6.00;1.58;;;10.70;99.90;;;;;;4172500;28;20048;-84
2021/01/21 00:32:12;;;;;;;4.72;1.67;;;10.70;99.90;;;;;;4154418;28;20037;-84
2021/01/21 00:34:13;;;;;;;6.47;1.75;;;10.60;99.90;;;;;;4152171;28;20055;-84
2021/01/21 00:36:13;;;;;;;4.10;1.65;;;10.60;99.90;;;;;;4172877;28;20053;-84
2021/01/21 00:38:20;;;;;;;4.28;2.00;;;10.60;99.90;;;;;;4149038;28;20026;-84
2021/01/21 00:40:22;;;;;;;5.40;1.50;;;10.70;99.90;;;;;;4132837;28;20058;-84
2021/01/21 00:42:32;;;;;;;5.70;1.60;;;10.60;99.90;;;;;;4147572;28;20048;-84
2021/01/21 00:44:33;;;;;;;4.47;1.55;;;10.60;99.90;;;;;;4142954;28;20100;-84
2021/01/21 00:46:33;;;;;;;4.90;1.60;;;10.70;99.90;;;;;;4145324;28;20042;-84
2021/01/21 00:48:35;;;;;;;4.15;1.55;;;10.70;99.90;;;;;;4154946;28;20042;-84
2021/01/21 00:50:35;;;;;;;3.45;1.20;;;10.70;99.90;;;;;;4149467;28;20551;-84
2021/01/21 00:52:36;;;;;;;4.80;1.63;;;10.70;99.90;;;;;;4150770;28;20034;-84
2021/01/21 00:54:37;;;;;;;3.75;1.70;;;10.70;99.90;;;;;;4160916;28;20053;-84
2021/01/21 00:56:37;;;;;;;7.38;1.83;;;10.70;99.90;;;;;;4160626;28;20038;-84
2021/01/21 00:58:41;;;;;;;3.38;1.55;;;10.80;99.90;;;;;;4155424;28;20065;-84
2021/01/21 01:00:42;;;;;;;5.50;1.50;;;10.80;99.90;;;;;;4148468;28;20122;-84
2021/01/21 01:02:50;;;;;;;4.68;1.60;;;10.80;99.90;;;;;;4155332;28;20517;-84
2021/01/21 01:04:58;;;;;;;5.45;1.50;;;10.80;99.90;;;;;;4155171;28;20461;-84
2021/01/21 01:07:05;;;;;;;3.97;1.27;;;10.80;99.90;;;;;;4137376;28;20054;-84
2021/01/21 01:09:17;;;;;;;4.55;1.58;;;10.80;99.90;;;;;;4155742;28;20033;-84
2021/01/21 01:11:17;;;;;;;2.05;1.35;;;10.80;99.90;;;;;;4151868;28;20465;-84
2021/01/21 01:13:18;;;;;;;3.50;1.25;;;10.80;99.90;;;;;;4149677;28;20038;-84
2021/01/21 01:15:27;;;;;;;6.35;1.63;;;10.80;99.90;;;;;;4138952;28;20453;-84
2021/01/21 01:17:27;;;;;;;5.00;1.80;;;10.80;99.90;;;;;;4163534;28;20061;-84
2021/01/21 01:19:28;;;;;;;4.85;1.70;;;10.80;99.90;;;;;;4166872;28;20037;-84
2021/01/21 01:21:29;;;;;;;3.38;1.48;;;10.80;99.90;;;;;;4151054;28;20045;-84
2021/01/21 01:23:30;;;;;;;5.40;1.35;;;10.80;99.90;;;;;;4146025;28;20033;-84
2021/01/21 01:25:33;;;;;;;2.73;1.53;;;10.80;99.90;;;;;;4183855;28;20036;-84
2021/01/21 01:27:34;;;;;;;3.20;1.30;;;10.80;99.90;;;;;;4143622;28;20079;-84
2021/01/21 01:29:51;;;;;;;4.40;1.27;;;10.80;99.90;;;;;;4143567;28;20041;-84
2021/01/21 01:31:52;;;;;;;3.45;1.20;;;10.80;99.90;;;;;;4161601;28;20095;-84
2021/01/21 01:33:57;;;;;;;4.63;1.40;;;10.80;99.90;;;;;;4149308;28;20072;-84
2021/01/21 01:35:58;;;;;;;2.45;1.15;;;10.80;99.90;;;;;;4152655;28;20034;-84
2021/01/21 01:37:58;;;;;;;2.42;1.33;;;10.80;99.90;;;;;;4179087;28;20063;-84
2021/01/21 01:39:59;;;;;;;4.43;1.50;;;10.80;99.90;;;;;;4147049;28;20030;-84
2021/01/21 01:42:06;;;;;;;6.25;1.40;;;10.80;99.90;;;;;;4162037;28;20463;-84
2021/01/21 01:44:09;;;;;;;7.10;2.15;;;10.80;99.90;;;;;;4179635;28;20048;-84
2021/01/21 01:46:11;;;;;;;4.07;1.42;;;10.80;99.90;;;;;;4149709;28;20038;-84
2021/01/21 01:48:12;;;;;;;4.20;1.10;;;10.80;99.90;;;;;;4158805;28;20734;-84
2021/01/21 01:50:15;;;;;;;6.45;1.52;;;10.80;99.90;;;;;;4164451;28;20036;-84
2021/01/21 01:52:29;;;;;;;5.00;1.40;;;10.80;99.90;;;;;;4178464;28;20033;-84
2021/01/21 01:54:30;;;;;;;3.50;1.38;;;10.90;99.90;;;;;;4155520;28;20037;-84
2021/01/21 01:56:32;;;;;;;4.78;1.40;;;10.80;99.90;;;;;;4147268;28;20498;-84
2021/01/21 01:58:33;;;;;;;8.33;1.77;;;10.80;99.90;;;;;;4176952;28;20096;-84
2021/01/21 02:00:34;;;;;;;3.20;1.17;;;10.90;99.90;;;;;;4154697;28;20395;-84
2021/01/21 02:02:35;;;;;;;3.58;1.30;;;10.90;99.90;;;;;;4145129;28;20089;-84
2021/01/21 02:04:36;;;;;;;3.53;1.20;;;10.90;99.90;;;;;;4159074;28;20088;-84
2021/01/21 02:06:37;;;;;;;4.13;1.38;;;10.90;99.90;;;;;;4146676;28;20030;-84
2021/01/21 02:08:37;;;;;;;6.20;1.77;;;10.90;99.90;;;;;;4160474;28;20036;-84
2021/01/21 02:10:40;;;;;;;3.08;1.13;;;10.90;99.90;;;;;;4146859;28;20130;-84
2021/01/21 02:12:59;;;;;;;2.00;1.08;;;11.00;99.90;;;;;;4145633;28;20135;-84
2021/01/21 02:15:40;;;;;;;3.45;1.27;;;11.00;99.90;;;;;;4167372;28;20104;-84
2021/01/21 02:17:48;;;;;;;5.50;1.30;;;11.00;99.90;;;;;;4164158;28;20029;-84
2021/01/21 02:20:01;;;;;;;8.73;1.35;;;11.00;99.90;;;;;;4154965;28;20025;-84
2021/01/21 02:22:24;;;;;;;2.72;1.30;;;11.00;99.90;;;;;;4156687;28;20133;-84
2021/01/21 02:25:05;;;;;;;5.22;1.50;;;11.10;99.90;;;;;;4155107;28;20036;-84
2021/01/21 02:27:08;;;;;;;2.35;1.10;;;11.10;99.90;;;;;;4156503;28;20049;-84
2021/01/21 02:29:18;;;;;;;2.95;1.05;;;11.10;99.90;;;;;;4158728;28;20037;-84
2021/01/21 02:31:26;;;;;;;4.22;1.63;;;11.10;99.90;;;;;;4148468;28;20100;-84
2021/01/21 02:33:45;;;;;;;5.30;1.10;;;11.20;99.90;;;;;;4145921;28;20104;-84
2021/01/21 02:35:53;;;;;;;3.08;1.00;;;11.20;99.90;;;;;;4158556;28;20030;-83
2021/01/21 02:38:02;;;;;;;3.85;1.17;;;11.30;99.90;;;;;;4141738;28;20995;-83
2021/01/21 02:40:05;;;;;;;6.55;1.45;;;11.30;99.90;;;;;;4161278;28;20029;-84
2021/01/21 02:42:23;;;;;;;5.45;1.63;;;11.40;99.90;;;;;;4143268;28;20113;-84
2021/01/21 02:44:32;;;;;;;3.53;1.00;;;11.40;99.90;;;;;;4162621;28;20831;-84
2021/01/21 02:46:32;;;;;;;2.85;1.02;;;11.50;99.90;;;;;;4152880;28;20030;-84
2021/01/21 02:48:36;;;;;;;4.82;1.33;;;11.50;99.90;;;;;;4172293;28;20552;-84
2021/01/21 02:50:39;;;;;;;5.05;1.25;;;11.60;99.90;;;;;;4178745;28;20065;-84
2021/01/21 02:52:48;;;;;;;5.13;1.10;;;11.60;99.90;;;;;;4157084;28;20393;-84
2021/01/21 02:55:07;;;;;;;2.45;1.23;;;11.70;99.90;;;;;;4133181;28;20030;-84
2021/01/21 02:57:26;;;;;;;2.30;1.13;;;11.80;99.90;;;;;;4167955;28;20037;-84
2021/01/21 02:59:39;;;;;;;2.42;1.17;;;11.80;99.90;;;;;;4146346;28;20037;-84
2021/01/21 03:01:42;;;;;;;3.60;1.10;;;11.80;99.90;;;;;;4180886;28;20400;-84
2021/01/21 03:03:47;;;;;;;4.32;1.10;;;11.80;99.90;;;;;;4148082;28;20034;-84
2021/01/21 03:05:55;;;;;;;4.45;1.30;;;11.90;99.90;;;;;;4157726;28;20033;-84
2021/01/21 03:07:56;;;;;;;4.20;1.20;;;11.90;99.90;;;;;;4159265;28;20045;-84
2021/01/21 03:09:57;;;;;;;7.30;1.40;;;11.90;99.90;;;;;;4162204;28;20038;-84
2021/01/21 03:12:18;;;;;;;2.78;1.25;;;11.90;99.90;;;;;;4161205;28;20060;-84
2021/01/21 03:14:23;;;;;;;4.10;1.40;;;11.90;99.90;;;;;;4153339;28;20045;-84
2021/01/21 03:16:26;;;;;;;9.98;1.25;;;12.00;99.90;;;;;;4163751;28;20041;-84
2021/01/21 03:18:28;;;;;;;;;;;12.00;99.90;;;;;;4186912;28;20032;-84
2021/01/21 03:20:28;;;;;;;5.35;1.20;;;12.10;99.90;;;;;;4160063;28;19996;-84
2021/01/21 03:22:29;;;;;;;5.20;1.27;;;12.10;99.90;;;;;;4149394;28;20065;-84
2021/01/21 03:24:45;;;;;;;4.10;1.33;;;12.10;99.90;;;;;;4161464;28;20036;-84
2021/01/21 03:26:45;;;;;;;6.32;1.60;;;12.10;99.90;;;;;;4174875;28;20071;-84
2021/01/21 03:28:46;;;;;;;3.83;0.98;;;12.20;99.90;;;;;;4167978;28;20025;-84
2021/01/21 03:30:58;;;;;;;4.45;1.30;;;12.20;99.90;;;;;;4145986;28;20054;-84
2021/01/21 03:32:59;;;;;;;3.38;1.30;;;12.30;99.90;;;;;;4166941;28;20036;-84
2021/01/21 03:35:00;;;;;;;3.58;1.50;;;12.30;99.90;;;;;;4165110;28;20029;-84
2021/01/21 03:37:01;;;;;;;4.18;1.00;;;12.30;99.90;;;;;;4164366;28;20030;-84
2021/01/21 03:39:03;;;;;;;5.55;1.25;;;12.30;99.90;;;;;;4160863;28;20033;-84
2021/01/21 03:41:03;;;;;;;6.10;1.63;;;12.30;99.90;;;;;;4158312;28;20041;-84
2021/01/21 03:43:04;;;;;;;4.90;1.20;;;12.30;99.90;;;;;;4161004;28;20042;-84
2021/01/21 03:45:05;;;;;;;3.15;1.27;;;12.30;99.90;;;;;;4144506;28;20092;-84
2021/01/21 03:47:17;;;;;;;2.63;1.00;;;12.20;99.90;;;;;;4154269;28;20554;-84
2021/01/21 03:49:18;;;;;;;4.65;1.15;;;12.30;99.90;;;;;;4156407;28;20048;-84
2021/01/21 03:51:18;;;;;;;2.80;0.88;;;12.30;99.90;;;;;;4179503;28;20493;-84
2021/01/21 03:53:19;;;;;;;7.10;1.02;;;12.20;99.90;;;;;;4155562;28;20753;-84
2021/01/21 03:55:20;;;;;;;3.05;1.15;;;12.20;99.90;;;;;;4170922;28;20042;-84
2021/01/21 03:57:20;;;;;;;2.97;0.77;;;12.20;99.90;;;;;;4150033;28;20035;-84
2021/01/21 03:59:21;;;;;;;2.30;0.82;;;12.20;99.90;;;;;;4146687;28;20120;-84
2021/01/21 04:01:40;;;;;;;1.83;0.80;;;12.20;99.90;;;;;;4136205;28;20398;-84
2021/01/21 04:03:41;;;;;;;3.30;1.10;;;12.20;99.90;;;;;;4161627;28;20037;-84
2021/01/21 04:05:41;;;;;;;2.65;1.10;;;12.20;99.90;;;;;;4147443;28;20438;-84
2021/01/21 04:07:58;;;;;;;2.47;1.10;;;12.20;99.90;;;;;;4145980;28;20139;-84
2021/01/21 04:09:58;;;;;;;1.67;0.90;;;12.20;99.90;;;;;;4143293;28;20041;-84
2021/01/21 04:11:59;;;;;;;3.28;0.90;;;12.20;99.90;;;;;;4170010;28;20040;-84
2021/01/21 04:14:14;;;;;;;4.25;1.10;;;12.20;99.90;;;;;;4152287;28;20695;-84
2021/01/21 04:16:15;;;;;;;3.58;0.98;;;12.20;99.90;;;;;;4165196;28;20505;-84
2021/01/21 04:18:21;;;;;;;3.05;0.90;;;12.20;99.90;;;;;;4150594;28;20026;-84
2021/01/21 04:20:22;;;;;;;2.35;0.80;;;12.10;99.90;;;;;;4166086;28;20480;-84
2021/01/21 04:22:28;;;;;;;2.42;1.10;;;12.10;99.90;;;;;;4161519;28;20112;-84
2021/01/21 04:24:36;;;;;;;1.30;0.63;;;12.10;99.90;;;;;;4142825;28;20038;-84
2021/01/21 04:27:01;;;;;;;3.13;0.85;;;12.10;99.90;;;;;;4149231;28;20040;-84
2021/01/21 04:29:02;;;;;;;1.35;0.60;;;12.10;99.90;;;;;;4169272;28;20045;-84
2021/01/21 04:31:03;;;;;;;1.50;0.60;;;12.10;99.90;;;;;;4160323;28;20034;-84
2021/01/21 04:33:04;;;;;;;2.63;0.65;;;12.10;99.90;;;;;;4164277;28;20079;-85
2021/01/21 04:35:05;;;;;;;1.58;0.60;;;12.10;99.90;;;;;;4181715;28;20029;-85
2021/01/21 04:37:06;;;;;;;1.42;0.70;;;12.10;99.90;;;;;;4151415;28;20033;-84
2021/01/21 04:39:06;;;;;;;3.80;1.02;;;12.10;99.90;;;;;;4155362;28;20029;-84
2021/01/21 04:41:14;;;;;;;2.05;0.85;;;12.10;99.90;;;;;;4148130;28;20113;-84
2021/01/21 04:43:15;;;;;;;1.67;0.85;;;12.20;99.90;;;;;;4152199;28;20462;-84
2021/01/21 04:45:15;;;;;;;2.97;0.82;;;12.10;99.90;;;;;;4163190;28;20064;-84
2021/01/21 04:47:19;;;;;;;0.80;0.60;;;12.10;99.90;;;;;;4141885;28;20191;-84
2021/01/21 04:49:21;;;;;;;0.90;0.57;;;12.10;99.90;;;;;;4168683;28;20052;-84
2021/01/21 04:51:28;;;;;;;1.10;0.60;;;12.10;99.90;;;;;;4148949;28;20036;-84
2021/01/21 04:53:30;;;;;;;2.67;0.85;;;12.10;99.90;;;;;;4185852;28;20110;-84
2021/01/21 04:55:42;;;;;;;2.55;0.73;;;12.10;99.90;;;;;;4172046;28;20491;-84
2021/01/21 04:57:45;;;;;;;0.93;0.73;;;12.10;99.90;;;;;;4162620;28;20029;-84
2021/01/21 04:59:47;;;;;;;2.15;0.85;;;12.10;99.90;;;;;;4161878;28;20034;-84
2021/01/21 05:01:48;;;;;;;3.00;0.82;;;12.00;99.90;;;;;;4159432;28;20029;-84
2021/01/21 05:03:50;;;;;;;1.52;0.77;;;11.90;99.90;;;;;;4154671;28;20060;-84
2021/01/21 05:05:51;;;;;;;2.55;1.00;;;11.80;99.90;;;;;;4159023;28;20566;-83
2021/01/21 05:07:52;;;;;;;6.97;1.13;;;11.70;99.90;;;;;;4160419;28;20089;-83
2021/01/21 05:09:53;;;;;;;2.70;1.05;;;11.40;99.90;;;;;;4166502;28;20057;-83
2021/01/21 05:11:56;;;;;;;3.80;0.85;;;11.00;99.90;;;;;;4178895;28;20100;-83
2021/01/21 05:13:56;;;;;;;3.40;0.75;;;10.60;99.90;;;;;;4183447;28;20058;-83
2021/01/21 05:15:57;;;;;;;3.78;0.65;;;10.20;99.90;;;;;;4149825;28;20100;-83
2021/01/21 05:17:59;;;;;;;0.68;0.32;;;9.90;99.90;;;;;;4166507;28;20469;-84
2021/01/21 05:20:01;;;;;;;1.10;0.40;;;9.60;99.90;;;;;;4160308;28;20111;-84
2021/01/21 05:22:02;;;;;;;3.10;0.40;;;9.30;99.90;;;;;;4155602;28;20091;-84
2021/01/21 05:24:03;;;;;;;2.63;0.50;;;9.10;99.90;;;;;;4165099;28;20025;-84
2021/01/21 05:26:04;;;;;;;2.53;0.63;;;9.00;99.90;;;;;;4145338;28;20049;-83
2021/01/21 05:28:06;;;;;;;1.90;0.50;;;8.80;99.90;;;;;;4145228;28;20457;-83
2021/01/21 05:30:08;;;;;;;0.85;0.40;;;8.60;99.90;;;;;;4143062;28;20676;-83
2021/01/21 05:32:10;;;;;;;0.47;0.30;;;8.50;99.90;;;;;;4164344;28;20101;-83
2021/01/21 05:34:18;;;;;;;3.17;0.77;;;8.50;99.90;;;;;;4157116;28;20083;-83
2021/01/21 05:36:19;;;;;;;1.13;0.40;;;8.30;99.90;;;;;;4153676;28;20049;-83
2021/01/21 05:38:21;;;;;;;2.95;0.30;;;8.20;99.90;;;;;;4162683;28;20040;-83
2021/01/21 05:40:29;;;;;;;1.55;0.50;;;8.10;99.90;;;;;;4134823;28;20041;-83
2021/01/21 05:42:29;;;;;;;2.83;0.52;;;8.00;99.90;;;;;;4162297;28;20045;-83
2021/01/21 05:44:31;;;;;;;2.70;0.80;;;7.90;99.90;;;;;;4163497;28;20060;-83
2021/01/21 05:46:33;;;;;;;1.63;0.50;;;7.90;99.90;;;;;;4177551;28;20037;-83
2021/01/21 05:48:44;;;;;;;1.25;0.45;;;7.90;99.90;;;;;;4151907;28;20082;-83
2021/01/21 05:50:45;;;;;;;1.00;0.50;;;7.90;99.90;;;;;;4153504;28;20036;-83
2021/01/21 05:52:47;;;;;;;0.90;0.30;;;7.80;99.90;;;;;;4158428;28;20028;-83
2021/01/21 05:54:50;;;;;;;1.25;0.35;;;7.80;99.90;;;;;;4175508;28;20033;-84
2021/01/21 05:56:52;;;;;;;0.88;0.35;;;7.80;99.90;;;;;;4146536;28;20041;-83
2021/01/21 05:58:59;;;;;;;1.55;0.68;;;7.70;99.90;;;;;;4149217;28;20061;-83
2021/01/21 06:01:01;;;;;;;2.00;0.45;;;7.70;99.90;;;;;;4162701;28;20120;-83
2021/01/21 06:03:04;;;;;;;2.75;0.85;;;7.60;99.90;;;;;;4163773;28;20030;-83
2021/01/21 06:05:05;;;;;;;2.83;0.60;;;7.60;99.90;;;;;;4147475;28;20073;-83
2021/01/21 06:07:06;;;;;;;3.22;0.40;;;7.60;99.90;;;;;;4147449;28;20481;-83
2021/01/21 06:09:09;;;;;;;3.10;0.43;;;7.60;99.90;;;;;;4159809;28;20033;-83
2021/01/21 06:11:11;;;;;;;3.35;0.50;;;7.60;99.90;;;;;;4163308;28;20112;-83
2021/01/21 06:13:14;;;;;;;2.72;0.60;;;7.60;99.90;;;;;;4145959;28;20121;-83
2021/01/21 06:15:26;;;;;;;3.05;0.80;;;7.50;99.90;;;;;;4153733;28;20536;-83
2021/01/21 06:17:30;;;;;;;4.93;0.70;;;7.50;99.90;;;;;;4179744;28;20437;-83
2021/01/21 06:19:30;;;;;;;3.10;0.77;;;7.50;99.90;;;;;;4164966;28;20042;-83
2021/01/21 06:21:46;;;;;;;3.63;1.10;;;7.50;99.90;;;;;;4153584;28;20077;-83
2021/01/21 06:24:04;;;;;;;1.77;0.85;;;7.50;99.90;;;;;;4140867;28;20448;-83
2021/01/21 06:26:06;;;;;;;5.30;0.90;;;7.40;99.90;;;;;;4163516;28;20049;-83
2021/01/21 06:28:08;;;;;;;3.30;0.93;;;7.50;99.90;;;;;;4148332;28;20041;-83
2021/01/21 06:30:15;;;;;;;2.47;0.88;;;7.50;99.90;;;;;;4170786;28;20274;-83
2021/01/21 06:32:34;;;;;;;3.50;0.75;;;7.50;99.90;;;;;;4168740;28;20029;-83
2021/01/21 06:34:39;;;;;;;3.10;0.90;;;7.50;99.90;;;;;;4168738;28;20041;-83
2021/01/21 06:37:21;;;;;;;4.85;0.95;;;7.40;99.90;;;;;;4146254;28;20120;-83
2021/01/21 06:39:32;;;;;;;6.22;0.95;;;7.50;99.90;;;;;;4161911;28;20169;-84
2021/01/21 06:41:34;;;;;;;4.53;1.10;;;7.40;99.90;;;;;;4146669;28;20037;-84
2021/01/21 06:43:37;;;;;;;3.58;1.20;;;7.50;99.90;;;;;;4163185;28;20755;-84
2021/01/21 06:45:38;;;;;;;;;;;7.50;99.90;;;;;;4147417;28;20117;-84
2021/01/21 06:47:39;;;;;;;4.38;0.88;;;7.50;99.90;;;;;;4170399;28;19917;-84
2021/01/21 06:49:42;;;;;;;5.75;1.15;;;7.50;99.90;;;;;;4149503;28;20064;-83
2021/01/21 06:51:46;;;;;;;8.95;1.27;;;7.40;99.90;;;;;;4162768;28;20026;-83
2021/01/21 06:53:53;;;;;;;2.10;0.77;;;7.50;99.90;;;;;;4172145;28;20041;-83
2021/01/21 06:55:54;;;;;;;6.53;1.00;;;7.50;99.90;;;;;;4162508;28;20041;-83
2021/01/21 06:57:55;;;;;;;6.60;1.30;;;7.50;99.90;;;;;;4163443;28;20040;-83
2021/01/21 06:59:56;;;;;;;4.10;0.98;;;7.50;99.90;;;;;;4146143;28;20081;-83
2021/01/21 07:01:58;;;;;;;2.78;0.88;;;7.50;99.90;;;;;;4162366;28;20072;-83
2021/01/21 07:04:08;;;;;;;2.83;1.08;;;7.40;99.90;;;;;;4161946;28;20056;-83
2021/01/21 07:06:16;;;;;;;3.55;1.27;;;7.40;99.90;;;;;;4168390;28;20041;-83
2021/01/21 07:08:16;;;;;;;4.63;1.30;;;7.40;99.90;;;;;;4151020;28;20083;-83
2021/01/21 07:10:22;;;;;;;3.65;1.20;;;7.40;99.90;;;;;;4164626;28;20483;-83
2021/01/21 07:12:24;;;;;;;3.55;0.93;;;7.40;99.90;;;;;;4163065;28;20481;-83
2021/01/21 07:14:30;;;;;;;5.00;1.00;;;7.40;99.90;;;;;;4147353;28;20071;-83
2021/01/21 07:16:33;;;;;;;6.88;1.20;;;7.40;99.90;;;;;;4164933;28;20489;-83
2021/01/21 07:18:36;;;;;;;6.20;1.50;;;7.40;99.90;;;;;;4167944;28;20418;-83
2021/01/21 07:21:12;;;;;;;4.80;1.33;;;7.40;99.90;;;;;;4165612;28;20099;-83
2021/01/21 07:23:17;;;;;;;7.68;1.75;;;7.40;99.90;;;;;;4165272;28;20574;-83
2021/01/21 07:25:30;;;;;;;4.47;1.00;;;7.40;99.90;;;;;;4191296;28;20032;-83
2021/01/21 07:27:34;;;;;;;5.15;1.48;;;7.40;99.90;;;;;;4162409;28;20033;-83
2021/01/21 07:29:37;;;;;;;5.30;1.55;;;7.40;99.90;;;;;;4145770;28;20040;-83
2021/01/21 07:32:10;;;;;;;5.15;1.67;;;7.40;99.90;;;;;;4161676;28;20077;-84
2021/01/21 07:34:42;;;;;;;8.60;1.83;;;7.40;99.90;;;;;;4163711;28;20032;-83
2021/01/21 07:36:43;;;;;;;8.68;1.75;;;7.40;99.90;;;;;;4160292;28;20033;-84
2021/01/21 07:38:43;;;;;;;7.30;1.55;;;7.40;99.90;;;;;;4164863;28;20044;-83
2021/01/21 07:40:49;;;;;;;4.75;1.50;;;7.40;99.90;;;;;;4162071;28;20033;-83
2021/01/21 07:42:51;;;;;;;7.30;1.40;;;7.30;99.90;;;;;;4148737;28;20058;-84
2021/01/21 07:45:01;;;;;;;4.65;1.25;;;7.40;99.90;;;;;;4164097;28;20509;-84
2021/01/21 07:47:39;;;;;;;8.80;1.73;;;7.40;99.90;;;;;;4182743;28;20059;-84
2021/01/21 07:49:41;;;;;;;5.40;0.85;;;7.40;99.90;;;;;;4156122;28;20038;-83
2021/01/21 07:51:42;;;;;;;10.65;1.63;;;7.30;99.90;;;;;;4168559;28;20037;-83
2021/01/21 07:54:03;;;;;;;5.70;1.30;;;7.40;99.90;;;;;;4170054;28;20425;-83
2021/01/21 07:56:05;;;;;;;7.90;1.35;;;7.40;99.90;;;;;;4167314;28;20029;-83
2021/01/21 07:58:30;;;;;;;8.50;1.45;;;7.30;99.90;;;;;;4152360;28;20073;-83
2021/01/21 08:00:33;;;;;;;7.13;1.90;;;7.30;99.90;;;;;;4164553;28;20030;-83
2021/01/21 08:02:50;;;;;;;;;;;7.30;99.90;;;;;;4166090;28;20108;-83
2021/01/21 08:05:00;;;;;;;4.85;1.23;;;7.30;99.90;;;;;;4164848;28;19916;-83
2021/01/21 08:07:01;;;;;;;2.67;0.93;;;7.30;99.90;;;;;;4175664;28;20115;-83
2021/01/21 08:09:12;;;;;;;4.00;1.20;;;7.30;99.90;;;;;;4147407;28;20040;-83
2021/01/21 08:11:20;;;;;;;6.35;1.30;;;7.30;99.90;;;;;;4177799;28;20658;-84
2021/01/21 08:13:21;;;;;;;5.00;1.20;;;7.20;99.90;;;;;;4157483;28;20129;-84
2021/01/21 08:15:23;;;;;;;9.15;1.60;;;7.30;99.90;;;;;;4148744;28;20034;-84
2021/01/21 08:17:24;;;;;;;6.00;1.35;;;7.40;99.90;;;;;;4160826;28;20037;-84
2021/01/21 08:19:26;;;;;;;7.15;1.38;;;7.40;99.90;;;;;;4182618;28;20104;-83
2021/01/21 08:21:28;;;;;;;8.17;1.40;;;7.50;99.90;;;;;;4165915;28;21577;-84
2021/01/21 08:23:36;;;;;;;8.00;1.85;;;7.70;99.90;;;;;;4144237;28;20053;-84
2021/01/21 08:25:42;;;;;;;4.10;1.08;;;7.80;99.90;;;;;;4170130;28;20675;-84
2021/01/21 08:27:50;;;;;;;3.55;1.02;;;7.90;99.90;;;;;;4154923;28;20041;-84
2021/01/21 08:29:51;;;;;;;2.97;1.05;;;8.10;99.90;;;;;;4158890;28;20060;-83
2021/01/21 08:31:52;;;;;;;9.15;1.50;;;8.30;99.90;;;;;;4145347;28;20026;-82
2021/01/21 08:33:53;;;;;;;6.65;1.92;;;8.40;99.90;;;;;;4160297;28;20449;-81
2021/01/21 08:36:00;;;;;;;4.22;1.20;;;8.50;99.90;;;;;;4170670;28;20041;-81
2021/01/21 08:38:05;;;;;;;6.30;1.65;;;8.60;99.90;;;;;;4174616;28;20056;-81
2021/01/21 08:40:07;;;;;;;4.28;1.27;;;8.70;99.90;;;;;;4189671;28;20160;-81
2021/01/21 08:42:10;;;;;;;8.20;1.40;;;8.80;99.90;;;;;;4151989;28;20053;-81
2021/01/21 08:44:19;;;;;;;5.05;1.30;;;8.90;99.90;;;;;;4147834;28;20034;-81
2021/01/21 08:46:22;;;;;;;6.57;1.90;;;9.10;99.90;;;;;;4161570;28;20034;-81
2021/01/21 08:48:32;;;;;;;3.72;1.25;;;9.20;99.90;;;;;;4164845;28;20026;-81
2021/01/21 08:50:40;;;;;;;5.65;1.35;;;9.30;99.90;;;;;;4174634;28;20044;-81
2021/01/21 08:53:02;;;;;;;9.75;1.58;;;9.50;99.90;;;;;;4143770;28;20030;-82
2021/01/21 08:55:12;;;;;;;4.20;1.30;;;9.50;99.90;;;;;;4165508;28;20680;-82
2021/01/21 08:57:24;;;;;;;7.75;1.52;;;9.50;99.90;;;;;;4174670;28;20032;-81
2021/01/21 08:59:29;;;;;;;7.97;1.52;;;9.50;99.90;;;;;;4167762;28;20068;-82
2021/01/21 09:01:43;;;;;;;6.65;1.45;;;9.40;99.90;;;;;;4156955;28;20092;-82
2021/01/21 09:03:51;;;;;;;8.70;1.70;;;9.20;99.90;;;;;;4161371;28;20109;-82
2021/01/21 09:05:58;;;;;;;5.68;1.58;;;9.10;99.90;;;;;;4162989;28;20041;-82
2021/01/21 09:08:07;;;;;;;4.93;1.50;;;9.00;99.90;;;;;;4161001;28;20084;-82
2021/01/21 09:10:14;;;;;;;6.00;1.55;;;9.10;99.90;;;;;;4148497;28;20111;-81
2021/01/21 09:12:20;;;;;;;5.43;1.00;;;9.00;99.90;;;;;;4170245;28;20041;-81
2021/01/21 09:14:23;;;;;;;4.53;0.95;;;9.00;99.90;;;;;;4156460;28;20039;-81
2021/01/21 09:16:53;;;;;;;6.28;1.30;;;9.00;99.90;;;;;;4174077;28;20048;-82
2021/01/21 09:19:02;;;;;;;4.95;1.38;;;9.00;99.90;;;;;;4158749;28;20042;-82
2021/01/21 09:21:28;;;;;;;7.18;1.33;;;8.90;99.90;;;;;;4164237;28;20033;-82
2021/01/21 09:23:39;;;;;;;4.80;1.27;;;8.70;99.90;;;;;;4165048;28;20025;-82
2021/01/21 09:25:39;;;;;;;7.60;1.80;;;8.70;99.90;;;;;;4161737;28;20066;-82
2021/01/21 09:27:52;;;;;;;7.15;1.17;;;8.60;99.90;;;;;;4172213;28;20116;-82
2021/01/21 09:29:55;;;;;;;3.88;0.80;;;8.50;99.90;;;;;;4163716;28;20187;-82
2021/01/21 09:31:55;;;;;;;;;;;8.50;99.90;;;;;;4163919;28;20477;-82
2021/01/21 09:34:07;;;;;;;6.47;1.23;;;8.50;99.90;;;;;;4159710;28;19921;-82
2021/01/21 09:36:18;;;;;;;7.05;1.25;;;8.40;99.90;;;;;;4154679;28;20025;-81
2021/01/21 09:38:18;;;;;;;9.00;1.65;;;8.30;99.90;;;;;;4152574;28;20045;-81
2021/01/21 09:40:23;;;;;;;9.60;1.55;;;8.30;99.90;;;;;;4149390;28;20034;-82
2021/01/21 09:42:25;;;;;;;8.82;2.03;;;8.30;99.90;;;;;;4175940;28;20131;-81
2021/01/21 09:44:26;;;;;;;7.18;1.30;;;8.20;99.90;;;;;;4160414;28;20056;-81
2021/01/21 09:46:28;;;;;;;4.38;1.23;;;8.20;99.90;;;;;;4176117;28;20059;-82
2021/01/21 09:48:29;;;;;;;9.48;1.45;;;8.30;99.90;;;;;;4151413;28;20041;-82
2021/01/21 09:50:29;;;;;;;4.75;1.25;;;8.40;99.90;;;;;;4171478;28;20038;-81
2021/01/21 09:52:31;;;;;;;5.10;1.42;;;8.50;99.90;;;;;;4170233;28;20041;-81
2021/01/21 09:54:32;;;;;;;5.35;1.30;;;8.50;99.90;;;;;;4159220;28;20481;-81
2021/01/21 09:56:33;;;;;;;6.85;1.70;;;8.60;99.90;;;;;;4178972;28;20453;-82
2021/01/21 09:58:34;;;;;;;4.22;1.33;;;8.80;99.90;;;;;;4170446;28;20036;-81
2021/01/21 10:00:35;;;;;;;5.90;1.23;;;8.90;99.90;;;;;;4171413;28;20452;-82
2021/01/21 10:02:36;;;;;;;5.00;1.35;;;9.00;99.90;;;;;;4141623;28;20034;-82
2021/01/21 10:04:38;;;;;;;4.10;1.20;;;9.10;99.90;;;;;;4149263;28;20029;-82
2021/01/21 10:06:39;;;;;;;5.28;1.15;;;9.10;99.90;;;;;;4167224;28;20033;-82
2021/01/21 10:08:41;;;;;;;4.65;1.13;;;9.10;99.90;;;;;;4157506;28;20026;-82
2021/01/21 10:10:41;;;;;;;5.18;1.42;;;9.20;99.90;;;;;;4166430;28;20030;-82
2021/01/21 10:12:42;;;;;;;8.45;1.92;;;9.20;99.90;;;;;;4163407;28;20101;-82
2021/01/21 10:14:43;;;;;;;5.65;1.40;;;9.20;99.90;;;;;;4169620;28;20045;-82
2021/01/21 10:16:44;;;;;;;3.22;0.77;;;9.20;99.90;;;;;;4176867;28;20025;-81
2021/01/21 10:18:45;;;;;;;5.85;1.45;;;9.30;99.90;;;;;;4147875;28;20030;-81
2021/01/21 10:20:45;;;;;;;6.40;1.60;;;9.30;99.90;;;;;;4166807;28;20021;-81
2021/01/21 10:22:56;;;;;;;3.50;0.90;;;9.40;99.90;;;;;;4149211;28;20054;-82
2021/01/21 10:24:57;;;;;;;6.90;1.30;;;9.40;99.90;;;;;;4142412;28;20105;-82
2021/01/21 10:27:15;;;;;;;4.55;1.10;;;9.50;99.90;;;;;;4167755;28;20069;-82
2021/01/21 10:29:17;;;;;;;7.78;2.00;;;9.50;99.90;;;;;;4176275;28;20159;-81
2021/01/21 10:31:29;;;;;;;2.88;0.90;;;9.40;99.90;;;;;;4165129;28;20112;-81
2021/01/21 10:33:41;;;;;;;7.60;1.27;;;9.40;99.90;;;;;;4163506;28;22234;-81
2021/01/21 10:35:41;;;;;;;4.72;1.35;;;9.30;99.90;;;;;;4138263;28;20518;-81
2021/01/21 10:37:42;;;;;;;6.57;1.85;;;9.30;99.90;;;;;;4163421;28;20049;-81
2021/01/21 10:39:43;;;;;;;5.47;1.23;;;9.20;99.90;;;;;;4163091;28;20022;-82
2021/01/21 10:41:43;;;;;;;5.47;1.40;;;9.10;99.90;;;;;;4173518;28;20512;-82
2021/01/21 10:43:44;;;;;;;6.60;1.70;;;9.00;99.90;;;;;;4170835;28;20129;-81
2021/01/21 10:45:44;;;;;;;5.35;1.27;;;8.90;99.90;;;;;;4171382;28;20643;-81
2021/01/21 10:47:45;;;;;;;5.97;1.52;;;8.90;99.90;;;;;;4175894;28;20365;-82
2021/01/21 10:49:49;;;;;;;7.40;1.33;;;8.80;99.90;;;;;;4171874;28;20041;-82
2021/01/21 10:51:50;;;;;;;5.38;1.88;;;8.70;99.90;;;;;;4153346;28;20041;-82
2021/01/21 10:53:55;;;;;;;5.20;1.48;;;8.70;99.90;;;;;;4163804;28;20431;-82
2021/01/21 10:55:56;;;;;;;5.97;1.67;;;8.70;99.90;;;;;;4149452;28;20038;-81
2021/01/21 10:57:56;;;;;;;12.45;1.27;;;8.80;99.90;;;;;;4147752;28;20866;-81